Time;durP1;ratioP1;P1;durP2;ratioP2;P2;SDS_P1;SDS_P2;PMS_P1;PMS_P2;Temp;Humidity;BMP_temperature;BMP_pressure;BME280_temperature;BME280_humidity;BME280_pressure;Samples;Min_cycle;Max_cycle;Signal;HPM_P1;HPM_P2
2023/02/13 00:01:08;;;;;;;;;;;2.20;99.90;;;;;;5056474;28;19909;-80
2023/02/13 00:03:34;;;;;;;;;;;2.10;99.90;;;;;;5057242;28;19913;-79
2023/02/13 00:05:59;;;;;;;;;;;2.10;99.90;;;;;;5056399;28;19909;-79
2023/02/13 00:08:25;;;;;;;;;;;2.10;99.90;;;;;;5054319;28;19924;-80
2023/02/13 00:10:50;;;;;;;;;;;2.10;99.90;;;;;;5056182;28;19913;-79
2023/02/13 00:13:16;;;;;;;;;;;2.10;99.90;;;;;;5055996;28;19912;-78
2023/02/13 00:15:41;;;;;;;;;;;2.20;99.90;;;;;;5054800;28;19913;-79
2023/02/13 00:18:07;;;;;;;;;;;2.20;99.90;;;;;;5066081;28;19938;-79
2023/02/13 00:20:32;;;;;;;;;;;2.10;99.90;;;;;;5062330;28;19897;-78
2023/02/13 00:22:58;;;;;;;;;;;2.10;99.90;;;;;;5074418;28;19907;-80
2023/02/13 00:25:24;;;;;;;;;;;2.00;99.90;;;;;;5072171;28;19932;-79
2023/02/13 00:27:50;;;;;;;;;;;2.00;99.90;;;;;;5069241;28;19909;-80
2023/02/13 00:30:16;;;;;;;;;;;2.10;99.90;;;;;;5069655;28;19952;-79
2023/02/13 00:32:41;;;;;;;;;;;2.10;99.90;;;;;;5065143;28;19935;-78
2023/02/13 00:35:07;;;;;;;;;;;2.10;99.90;;;;;;5044617;28;19939;-79
2023/02/13 00:37:33;;;;;;;;;;;2.10;99.90;;;;;;5073949;28;19976;-77
2023/02/13 00:39:58;;;;;;;;;;;2.00;99.90;;;;;;5063304;28;19913;-78
2023/02/13 00:42:25;;;;;;;;;;;2.00;99.90;;;;;;5062571;28;19924;-79
2023/02/13 00:44:51;;;;;;;;;;;2.00;99.90;;;;;;5062612;28;19955;-79
2023/02/13 00:47:17;;;;;;;;;;;2.00;99.90;;;;;;5053383;28;20012;-78
2023/02/13 00:49:42;;;;;;;;;;;2.00;99.90;;;;;;5053976;28;19995;-79
2023/02/13 00:52:08;;;;;;;;;;;2.00;99.90;;;;;;5054998;28;20003;-80
2023/02/13 00:54:33;;;;;;;;;;;2.00;99.90;;;;;;5056794;28;19913;-80
2023/02/13 00:56:59;;;;;;;;;;;2.00;99.90;;;;;;5075600;28;19901;-78
2023/02/13 00:59:24;;;;;;;;;;;2.00;99.90;;;;;;5065862;28;19913;-78
2023/02/13 01:01:50;;;;;;;;;;;2.10;99.90;;;;;;5058389;28;19933;-77
2023/02/13 01:04:15;;;;;;;;;;;2.20;99.90;;;;;;5046238;28;19908;-78
2023/02/13 01:06:41;;;;;;;;;;;2.20;99.90;;;;;;5073272;28;19908;-78
2023/02/13 01:09:07;;;;;;;;;;;2.20;99.90;;;;;;5071533;28;19963;-79
2023/02/13 01:11:32;;;;;;;;;;;2.30;99.90;;;;;;5073328;28;19901;-78
2023/02/13 01:13:58;;;;;;;;;;;2.20;99.90;;;;;;5072391;28;19921;-80
2023/02/13 01:16:23;;;;;;;;;;;2.20;99.90;;;;;;5066161;28;19920;-80
2023/02/13 01:18:49;;;;;;;;;;;2.20;99.90;;;;;;5063652;28;19976;-78
2023/02/13 01:21:16;;;;;;;;;;;2.20;99.90;;;;;;5064251;28;20389;-79
2023/02/13 01:23:42;;;;;;;;;;;2.20;99.90;;;;;;5063550;28;19916;-78
2023/02/13 01:26:09;;;;;;;;;;;2.20;99.90;;;;;;5064116;28;19916;-78
2023/02/13 01:28:35;;;;;;;;;;;2.20;99.90;;;;;;5063970;28;19978;-78
2023/02/13 01:31:00;;;;;;;;;;;2.30;99.90;;;;;;5062875;28;19913;-79
2023/02/13 01:33:27;;;;;;;;;;;2.30;99.90;;;;;;5067036;28;19939;-79
2023/02/13 01:35:52;;;;;;;;;;;2.30;99.90;;;;;;5082520;28;19913;-78
2023/02/13 01:38:18;;;;;;;;;;;2.30;99.90;;;;;;5061675;28;20306;-77
2023/02/13 01:40:47;;;;;;;;;;;2.20;99.90;;;;;;5065600;28;19919;-80
2023/02/13 01:43:12;;;;;;;;;;;2.20;99.90;;;;;;5066988;28;19909;-79
2023/02/13 01:45:38;;;;;;;;;;;2.30;99.90;;;;;;5063458;28;19964;-79
2023/02/13 01:48:11;;;;;;;;;;;2.20;99.90;;;;;;5060681;28;19931;-78
2023/02/13 01:50:43;;;;;;;;;;;2.20;99.90;;;;;;5057483;28;19920;-79
2023/02/13 01:53:32;;;;;;;;;;;2.20;99.90;;;;;;5056393;28;19962;-78
2023/02/13 01:56:01;;;;;;;;;;;2.20;99.90;;;;;;5050362;28;19959;-78
2023/02/13 01:58:30;;;;;;;;;;;2.20;99.90;;;;;;5053454;28;19915;-79
2023/02/13 02:00:56;;;;;;;;;;;2.10;99.90;;;;;;5053185;28;19915;-78
2023/02/13 02:03:34;;;;;;;;;;;2.10;99.90;;;;;;5068080;28;19924;-79
2023/02/13 02:06:01;;;;;;;;;;;2.20;99.90;;;;;;5052795;28;19916;-79
2023/02/13 02:08:27;;;;;;;;;;;2.10;99.90;;;;;;5052767;28;20240;-78
2023/02/13 02:10:54;;;;;;;;;;;2.10;99.90;;;;;;5055998;28;19917;-79
2023/02/13 02:13:20;;;;;;;;;;;2.10;99.90;;;;;;5056323;28;19935;-78
2023/02/13 02:15:46;;;;;;;;;;;2.10;99.90;;;;;;5056265;28;20374;-78
2023/02/13 02:18:14;;;;;;;;;;;2.20;99.90;;;;;;5055694;28;20436;-77
2023/02/13 02:20:58;;;;;;;;;;;2.10;99.90;;;;;;5055490;28;20286;-79
2023/02/13 02:23:42;;;;;;;;;;;2.20;99.90;;;;;;5071355;28;19915;-79
2023/02/13 02:26:26;;;;;;;;;;;2.20;99.90;;;;;;5057000;28;19909;-79
2023/02/13 02:29:10;;;;;;;;;;;2.10;99.90;;;;;;5057691;28;19915;-79
2023/02/13 02:31:54;;;;;;;;;;;2.10;99.90;;;;;;5062267;28;19981;-80
2023/02/13 02:34:40;;;;;;;;;;;2.00;99.90;;;;;;5064114;28;19959;-79
2023/02/13 02:37:24;;;;;;;;;;;2.00;99.90;;;;;;5057694;28;19921;-78
2023/02/13 02:40:04;;;;;;;;;;;2.00;99.90;;;;;;5056475;28;19908;-79
2023/02/13 02:42:47;;;;;;;;;;;2.00;99.90;;;;;;5063227;28;19908;-78
2023/02/13 02:45:36;;;;;;;;;;;2.00;99.90;;;;;;5068727;28;19909;-78
2023/02/13 02:51:17;;;;;;;;;;;2.00;99.90;;;;;;5055822;28;19982;-79
2023/02/13 02:53:48;;;;;;;;;;;2.00;99.90;;;;;;5019870;28;20052;-78
2023/02/13 02:56:21;;;;;;;;;;;2.00;99.90;;;;;;5071621;28;19909;-78
2023/02/13 03:07:06;;;;;;;;;;;1.90;99.90;;;;;;5036335;28;19960;-79
2023/02/13 03:15:06;;;;;;;;;;;1.90;99.90;;;;;;5040586;28;19963;-79
2023/02/13 03:23:38;;;;;;;;;;;2.00;99.90;;;;;;5058660;28;19931;-79
2023/02/13 03:26:03;;;;;;;;;;;2.00;99.90;;;;;;5055298;28;19970;-79
2023/02/13 03:31:30;;;;;;;;;;;2.10;99.90;;;;;;5056228;28;19959;-79
2023/02/13 03:34:07;;;;;;;;;;;2.20;99.90;;;;;;5055015;28;19950;-78
2023/02/13 03:39:33;;;;;;;;;;;2.20;99.90;;;;;;5055246;28;19915;-79
2023/02/13 03:42:11;;;;;;;;;;;2.20;99.90;;;;;;5054207;28;19917;-79
2023/02/13 03:44:45;;;;;;;;;;;2.20;99.90;;;;;;5054222;28;19908;-78
2023/02/13 03:47:12;;;;;;;;;;;2.10;99.90;;;;;;5037353;28;19999;-79
2023/02/13 03:52:32;;;;;;;;;;;1.90;99.90;;;;;;5055532;28;20014;-79
2023/02/13 04:00:39;;;;;;;;;;;1.80;99.90;;;;;;5069210;28;19970;-76
2023/02/13 04:03:09;;;;;;;;;;;1.80;99.90;;;;;;5074457;28;19913;-79
2023/02/13 04:05:39;;;;;;;;;;;1.80;99.90;;;;;;5075290;28;19912;-79
2023/02/13 04:08:05;;;;;;;;;;;1.80;99.90;;;;;;5072772;28;19966;-79
2023/02/13 04:10:32;;;;;;;;;;;1.80;99.90;;;;;;5055038;28;19912;-78
2023/02/13 04:13:27;;;;;;;;;;;1.80;99.90;;;;;;5053268;28;20004;-78
2023/02/13 04:16:00;;;;;;;;;;;1.70;99.90;;;;;;5039238;28;19909;-80
2023/02/13 04:18:27;;;;;;;;;;;1.70;99.90;;;;;;5052925;28;20031;-78
2023/02/13 04:20:52;;;;;;;;;;;1.80;99.90;;;;;;5052516;28;20244;-77
2023/02/13 04:23:18;;;;;;;;;;;1.80;99.90;;;;;;5035041;28;20014;-78
2023/02/13 04:25:46;;;;;;;;;;;1.90;99.90;;;;;;5052695;28;19916;-78
2023/02/13 04:28:11;;;;;;;;;;;1.90;99.90;;;;;;5053259;28;19916;-77
2023/02/13 04:30:37;;;;;;;;;;;2.00;99.90;;;;;;5053619;28;19908;-79
2023/02/13 04:33:02;;;;;;;;;;;2.00;99.90;;;;;;5033683;28;19909;-78
2023/02/13 04:35:28;;;;;;;;;;;2.00;99.90;;;;;;5052688;28;19948;-78
2023/02/13 04:37:53;;;;;;;;;;;2.00;99.90;;;;;;5053039;28;19959;-77
2023/02/13 04:40:19;;;;;;;;;;;2.00;99.90;;;;;;5053407;28;19909;-79
2023/02/13 04:42:46;;;;;;;;;;;2.00;99.90;;;;;;5052984;28;19917;-78
2023/02/13 04:45:11;;;;;;;;;;;1.90;99.90;;;;;;5051982;28;20003;-78
2023/02/13 04:47:37;;;;;;;;;;;1.90;99.90;;;;;;5052065;28;19952;-78
2023/02/13 04:50:02;;;;;;;;;;;1.90;99.90;;;;;;5052838;28;20327;-79
2023/02/13 04:52:28;;;;;;;;;;;1.80;99.90;;;;;;5053337;28;19916;-78
2023/02/13 04:54:53;;;;;;;;;;;1.70;99.90;;;;;;5051481;28;19963;-79
2023/02/13 04:57:19;;;;;;;;;;;1.60;99.90;;;;;;5052091;28;20069;-77
2023/02/13 04:59:44;;;;;;;;;;;1.70;99.90;;;;;;5034988;28;19913;-77
2023/02/13 05:02:10;;;;;;;;;;;1.70;99.90;;;;;;5050818;28;20385;-79
2023/02/13 05:04:35;;;;;;;;;;;1.80;99.90;;;;;;5051649;28;20007;-77
2023/02/13 05:07:01;;;;;;;;;;;1.90;99.90;;;;;;5033723;28;19909;-77
2023/02/13 05:09:27;;;;;;;;;;;1.90;99.90;;;;;;5054390;28;19913;-77
2023/02/13 05:11:53;;;;;;;;;;;2.00;99.90;;;;;;5054360;28;19913;-78
2023/02/13 05:14:18;;;;;;;;;;;2.10;99.90;;;;;;5057901;28;19919;-77
2023/02/13 05:16:44;;;;;;;;;;;2.10;99.90;;;;;;5057178;28;19954;-76
2023/02/13 05:19:10;;;;;;;;;;;2.20;99.90;;;;;;5042598;28;19939;-77
2023/02/13 05:24:20;;;;;;;;;;;2.10;99.90;;;;;;5067159;28;19956;-78
2023/02/13 05:26:45;;;;;;;;;;;2.20;99.90;;;;;;5071311;28;19912;-78
2023/02/13 05:29:21;;;;;;;;;;;2.20;99.90;;;;;;5053640;28;19909;-77
2023/02/13 05:31:48;;;;;;;;;;;2.20;99.90;;;;;;5041851;28;20282;-77
2023/02/13 05:34:14;;;;;;;;;;;2.10;99.90;;;;;;5057033;28;19917;-78
2023/02/13 05:36:39;;;;;;;;;;;2.10;99.90;;;;;;5062869;28;19917;-77
2023/02/13 05:39:05;;;;;;;;;;;2.00;99.90;;;;;;5073570;28;19972;-77
2023/02/13 05:41:31;;;;;;;;;;;2.00;99.90;;;;;;5073851;28;19908;-77
2023/02/13 05:43:56;;;;;;;;;;;2.00;99.90;;;;;;5050194;28;19908;-79
2023/02/13 05:46:22;;;;;;;;;;;2.00;99.90;;;;;;5056313;28;19909;-78
2023/02/13 05:48:48;;;;;;;;;;;2.00;99.90;;;;;;5037757;28;19944;-77
2023/02/13 05:51:13;;;;;;;;;;;2.00;99.90;;;;;;5045152;28;19909;-78
2023/02/13 05:53:39;;;;;;;;;;;2.00;99.90;;;;;;5055050;28;20359;-78
2023/02/13 05:56:05;;;;;;;;;;;2.00;99.90;;;;;;5055704;28;19913;-77
2023/02/13 05:58:31;;;;;;;;;;;2.00;99.90;;;;;;5057697;28;19933;-78
2023/02/13 06:00:57;;;;;;;;;;;2.00;99.90;;;;;;5064671;28;19909;-78
2023/02/13 06:03:26;;;;;;;;;;;2.00;99.90;;;;;;5061542;28;19909;-77
2023/02/13 06:05:52;;;;;;;;;;;2.00;99.90;;;;;;5043230;28;19931;-78
2023/02/13 06:08:18;;;;;;;;;;;1.90;99.90;;;;;;5039983;28;19924;-79
2023/02/13 06:10:47;;;;;;;;;;;1.80;99.90;;;;;;5057358;28;19924;-79
2023/02/13 06:13:13;;;;;;;;;;;1.80;99.90;;;;;;5037801;28;20492;-81
2023/02/13 06:15:39;;;;;;;;;;;1.70;99.90;;;;;;5038129;28;19909;-79
2023/02/13 06:18:05;;;;;;;;;;;1.70;99.90;;;;;;5046454;28;19912;-79
2023/02/13 06:20:32;;;;;;;;;;;1.70;99.90;;;;;;5059756;28;19912;-79
2023/02/13 06:22:57;;;;;;;;;;;1.80;99.90;;;;;;5049477;28;19944;-79
2023/02/13 06:25:23;;;;;;;;;;;1.90;99.90;;;;;;5063476;28;19932;-78
2023/02/13 06:27:48;;;;;;;;;;;1.90;99.90;;;;;;5057712;28;19909;-78
2023/02/13 06:30:15;;;;;;;;;;;2.00;99.90;;;;;;5057819;28;19931;-78
2023/02/13 06:32:40;;;;;;;;;;;2.00;99.90;;;;;;5039509;28;20407;-78
2023/02/13 06:35:06;;;;;;;;;;;1.90;99.90;;;;;;5056521;28;20007;-78
2023/02/13 06:37:32;;;;;;;;;;;2.00;99.90;;;;;;5058858;28;19923;-79
2023/02/13 06:39:57;;;;;;;;;;;2.10;99.90;;;;;;5055743;28;19909;-79
2023/02/13 06:42:23;;;;;;;;;;;2.10;99.90;;;;;;5060364;28;19928;-79
2023/02/13 06:44:48;;;;;;;;;;;2.10;99.90;;;;;;5073460;28;20283;-80
2023/02/13 06:47:14;;;;;;;;;;;2.10;99.90;;;;;;5074317;28;19908;-79
2023/02/13 06:49:40;;;;;;;;;;;2.20;99.90;;;;;;5073594;28;19935;-78
2023/02/13 06:52:05;;;;;;;;;;;2.20;99.90;;;;;;5061849;28;19920;-77
2023/02/13 06:54:30;;;;;;;;;;;2.20;99.90;;;;;;5058215;28;19912;-80
2023/02/13 06:56:56;;;;;;;;;;;2.20;99.90;;;;;;5059766;28;19908;-78
2023/02/13 06:59:22;;;;;;;;;;;2.20;99.90;;;;;;5060005;28;20360;-79
2023/02/13 07:01:47;;;;;;;;;;;2.20;99.90;;;;;;5061799;28;19909;-79
2023/02/13 07:04:13;;;;;;;;;;;2.10;99.90;;;;;;5067657;28;20395;-78
2023/02/13 07:06:38;;;;;;;;;;;2.10;99.90;;;;;;5069380;28;19915;-78
2023/02/13 07:09:04;;;;;;;;;;;2.10;99.90;;;;;;5063754;28;19916;-80
2023/02/13 07:11:30;;;;;;;;;;;2.10;99.90;;;;;;5058983;28;19917;-79
2023/02/13 07:13:58;;;;;;;;;;;2.10;99.90;;;;;;5068947;28;19982;-78
2023/02/13 07:16:26;;;;;;;;;;;2.10;99.90;;;;;;5053953;28;19912;-78
2023/02/13 07:18:55;;;;;;;;;;;2.10;99.90;;;;;;5066834;28;19909;-77
2023/02/13 07:21:21;;;;;;;;;;;2.10;99.90;;;;;;5064269;28;20232;-79
2023/02/13 07:23:46;;;;;;;;;;;2.00;99.90;;;;;;5041548;28;19973;-79
2023/02/13 07:26:12;;;;;;;;;;;2.10;99.90;;;;;;5059184;28;20043;-80
2023/02/13 07:28:38;;;;;;;;;;;2.10;99.90;;;;;;5060880;28;19928;-79
2023/02/13 07:31:06;;;;;;;;;;;2.20;99.90;;;;;;5058544;28;19919;-79
2023/02/13 07:33:33;;;;;;;;;;;2.30;99.90;;;;;;5059387;28;19921;-79
2023/02/13 07:35:58;;;;;;;;;;;2.40;99.90;;;;;;5037628;28;19962;-79
2023/02/13 07:38:24;;;;;;;;;;;2.50;99.90;;;;;;5054771;28;19909;-79
2023/02/13 07:40:49;;;;;;;;;;;2.50;99.90;;;;;;5055744;28;19913;-76
2023/02/13 07:43:15;;;;;;;;;;;2.60;99.90;;;;;;5054094;28;19938;-77
2023/02/13 07:45:40;;;;;;;;;;;2.60;99.90;;;;;;5053884;28;20048;-78
2023/02/13 07:48:06;;;;;;;;;;;2.70;99.90;;;;;;5054380;28;20041;-78
2023/02/13 07:50:32;;;;;;;;;;;2.80;99.90;;;;;;5056980;28;19909;-79
2023/02/13 07:52:58;;;;;;;;;;;2.70;99.90;;;;;;5057660;28;19951;-79
2023/02/13 07:55:35;;;;;;;;;;;2.70;99.90;;;;;;5056658;28;20390;-79
2023/02/13 07:58:03;;;;;;;;;;;2.80;99.90;;;;;;5056812;28;19956;-79
2023/02/13 08:00:28;;;;;;;;;;;2.80;99.90;;;;;;5039865;28;20287;-79
2023/02/13 08:02:54;;;;;;;;;;;2.90;99.90;;;;;;5056849;28;19931;-78
2023/02/13 08:05:19;;;;;;;;;;;2.80;99.90;;;;;;5055695;28;20227;-80
2023/02/13 08:07:45;;;;;;;;;;;2.80;99.90;;;;;;5058017;28;19919;-79
2023/02/13 08:12:55;;;;;;;;;;;2.80;99.90;;;;;;5057816;28;20014;-79
2023/02/13 08:15:22;;;;;;;;;;;2.90;99.90;;;;;;5048783;28;20371;-79
2023/02/13 08:17:48;;;;;;;;;;;2.90;99.90;;;;;;5048331;28;19956;-79
2023/02/13 08:20:13;;;;;;;;;;;2.90;99.90;;;;;;5055619;28;19909;-79
2023/02/13 08:22:39;;;;;;;;;;;2.80;99.90;;;;;;5059777;28;19959;-79
2023/02/13 08:25:05;;;;;;;;;;;2.70;99.90;;;;;;5076573;28;19924;-79
2023/02/13 08:27:31;;;;;;;;;;;2.70;99.90;;;;;;5070848;28;19912;-79
2023/02/13 08:29:57;;;;;;;;;;;2.60;99.90;;;;;;5068652;28;20402;-79
2023/02/13 08:32:22;;;;;;;;;;;2.70;99.90;;;;;;5055602;28;19909;-79
2023/02/13 08:34:48;;;;;;;;;;;2.80;99.90;;;;;;5055463;28;19913;-79
2023/02/13 08:37:14;;;;;;;;;;;2.90;99.90;;;;;;5055890;28;19963;-79
2023/02/13 08:39:39;;;;;;;;;;;3.00;99.90;;;;;;5056702;28;19909;-80
2023/02/13 08:42:05;;;;;;;;;;;3.00;99.90;;;;;;5056569;28;19958;-79
2023/02/13 08:44:31;;;;;;;;;;;3.10;99.90;;;;;;5072135;28;19949;-78
2023/02/13 08:47:06;;;;;;;;;;;3.20;99.90;;;;;;5055428;28;20426;-80
2023/02/13 08:49:32;;;;;;;;;;;3.30;99.90;;;;;;5046893;28;19935;-79
2023/02/13 08:51:58;;;;;;;;;;;3.20;99.90;;;;;;5055630;28;20011;-79
2023/02/13 08:54:24;;;;;;;;;;;3.20;99.90;;;;;;5057401;28;19939;-80
2023/02/13 08:56:49;;;;;;;;;;;3.20;99.90;;;;;;5057018;28;19916;-80
2023/02/13 08:59:15;;;;;;;;;;;3.20;99.90;;;;;;5057578;28;19913;-80
2023/02/13 09:01:41;;;;;;;;;;;3.10;99.90;;;;;;5061061;28;19976;-79
2023/02/13 09:04:06;;;;;;;;;;;3.00;99.90;;;;;;5049113;28;19909;-79
2023/02/13 09:06:32;;;;;;;;;;;3.00;99.90;;;;;;5065980;28;19917;-80
2023/02/13 09:08:57;;;;;;;;;;;3.00;99.90;;;;;;5067084;28;19909;-77
2023/02/13 09:11:23;;;;;;;;;;;3.10;99.90;;;;;;5066603;28;19920;-78
2023/02/13 09:13:52;;;;;;;;;;;3.20;99.90;;;;;;5066682;28;19935;-78
2023/02/13 09:16:17;;;;;;;;;;;3.30;99.90;;;;;;5066128;28;19913;-78
2023/02/13 09:18:45;;;;;;;;;;;3.30;99.90;;;;;;5055968;28;19935;-77
2023/02/13 09:21:11;;;;;;;;;;;3.20;99.90;;;;;;5063282;28;19967;-78
2023/02/13 09:23:38;;;;;;;;;;;3.20;99.90;;;;;;5060039;28;19909;-78
2023/02/13 09:26:05;;;;;;;;;;;3.30;99.90;;;;;;5040194;28;19913;-78
2023/02/13 09:28:31;;;;;;;;;;;3.40;99.90;;;;;;5040578;28;20004;-78
2023/02/13 09:30:57;;;;;;;;;;;3.40;99.90;;;;;;5059511;28;19909;-79
2023/02/13 09:33:23;;;;;;;;;;;3.40;99.90;;;;;;5075253;28;19984;-78
2023/02/13 09:35:49;;;;;;;;;;;3.30;99.90;;;;;;5044079;28;19917;-77
2023/02/13 09:38:14;;;;;;;;;;;3.30;99.90;;;;;;5058282;28;19913;-78
2023/02/13 09:40:40;;;;;;;;;;;3.40;99.90;;;;;;5058400;28;19923;-78
2023/02/13 09:43:13;;;;;;;;;;;3.50;99.90;;;;;;5057557;28;20379;-78
2023/02/13 09:45:39;;;;;;;;;;;3.60;99.90;;;;;;5058711;28;19917;-76
2023/02/13 09:48:05;;;;;;;;;;;3.70;99.90;;;;;;5057692;28;19924;-77
2023/02/13 09:50:32;;;;;;;;;;;3.80;99.90;;;;;;5058312;28;20276;-78
2023/02/13 09:52:58;;;;;;;;;;;3.80;99.90;;;;;;5059000;28;19909;-79
2023/02/13 09:55:26;;;;;;;;;;;3.80;99.90;;;;;;5056095;28;20240;-78
2023/02/13 09:58:24;;;;;;;;;;;3.90;99.90;;;;;;5064868;28;19909;-78
2023/02/13 10:00:52;;;;;;;;;;;4.00;99.90;;;;;;5027802;28;19998;-78
2023/02/13 10:03:27;;;;;;;;;;;3.80;99.90;;;;;;5078110;28;19909;-78
2023/02/13 10:06:13;;;;;;;;;;;3.70;99.90;;;;;;5079035;28;19912;-79
2023/02/13 10:08:39;;;;;;;;;;;3.60;99.90;;;;;;5060993;28;19944;-80
2023/02/13 10:11:13;;;;;;;;;;;3.60;99.90;;;;;;5080095;28;20358;-79
2023/02/13 10:13:49;;;;;;;;;;;3.70;99.90;;;;;;5079426;28;19912;-79
2023/02/13 10:16:16;;;;;;;;;;;3.80;99.90;;;;;;5079388;28;19909;-79
2023/02/13 10:18:42;;;;;;;;;;;4.00;99.90;;;;;;5065205;28;20003;-78
2023/02/13 10:21:08;;;;;;;;;;;4.10;99.90;;;;;;5059553;28;19944;-77
2023/02/13 10:23:36;;;;;;;;;;;4.20;99.90;;;;;;5058459;28;19909;-79
2023/02/13 10:26:04;;;;;;;;;;;4.20;99.90;;;;;;5065843;28;19912;-78
2023/02/13 10:31:41;;;;;;;;;;;4.40;99.90;;;;;;5084464;28;19942;-78
2023/02/13 10:34:11;;;;;;;;;;;4.40;99.90;;;;;;5087803;28;19913;-78
2023/02/13 10:36:39;;;;;;;;;;;4.40;99.90;;;;;;5095229;28;19974;-78
2023/02/13 10:39:24;;;;;;;;;;;4.30;99.60;;;;;;5094215;28;19926;-79
2023/02/13 10:42:17;;;;;;;;;;;4.20;99.70;;;;;;5090252;28;20375;-79
2023/02/13 10:45:18;;;;;;;;;;;4.00;99.90;;;;;;5080124;28;19918;-78
2023/02/13 10:47:46;;;;;;;;;;;4.00;99.90;;;;;;5078572;28;19908;-79
2023/02/13 10:50:38;;;;;;;;;;;4.10;99.90;;;;;;5085604;28;19934;-80
2023/02/13 10:53:16;;;;;;;;;;;4.20;99.90;;;;;;5079868;28;19904;-81
2023/02/13 10:55:51;;;;;;;;;;;4.20;99.50;;;;;;5095089;28;19908;-79
2023/02/13 10:58:58;;;;;;;;;;;4.00;99.90;;;;;;5086404;28;20574;-79
2023/02/13 11:01:55;;;;;;;;;;;3.90;99.90;;;;;;5086408;28;19916;-81
2023/02/13 11:04:21;;;;;;;;;;;3.90;99.90;;;;;;5085175;28;19915;-80
2023/02/13 11:07:08;;;;;;;;;;;3.80;99.90;;;;;;5091493;28;20369;-79
2023/02/13 11:09:39;;;;;;;;;;;3.80;99.90;;;;;;5070356;28;20279;-80
2023/02/13 11:12:22;;;;;;;;;;;3.80;99.90;;;;;;5092358;28;19935;-80
2023/02/13 11:14:56;;;;;;;;;;;3.70;99.90;;;;;;5095966;28;19984;-80
2023/02/13 11:17:25;;;;;;;;;;;3.70;99.90;;;;;;5089636;28;19939;-81
2023/02/13 11:19:55;;;;;;;;;;;3.70;99.90;;;;;;5073723;28;19916;-79
2023/02/13 11:22:30;;;;;;;;;;;3.80;99.90;;;;;;5069616;28;19909;-80
2023/02/13 11:24:57;;;;;;;;;;;4.00;99.90;;;;;;5068186;28;19913;-80
2023/02/13 11:27:25;;;;;;;;;;;4.20;99.90;;;;;;5070209;28;19917;-79
2023/02/13 11:29:58;;;;;;;;;;;4.40;99.90;;;;;;5067433;28;19909;-81
2023/02/13 11:32:25;;;;;;;;;;;4.40;99.90;;;;;;5059683;28;19909;-79
2023/02/13 11:34:51;;;;;;;;;;;4.30;99.60;;;;;;5064200;28;19917;-78
2023/02/13 11:37:21;;;;;;;;;;;4.30;99.90;;;;;;5064050;28;19969;-78
2023/02/13 11:39:47;;;;;;;;;;;4.30;99.90;;;;;;5064589;28;19939;-79
2023/02/13 11:42:18;;;;;;;;;;;4.40;99.60;;;;;;5069817;28;19982;-80
2023/02/13 11:44:48;;;;;;;;;;;4.20;99.10;;;;;;5070162;28;19909;-81
2023/02/13 11:47:14;;;;;;;;;;;4.20;99.70;;;;;;5071665;28;19897;-78
2023/02/13 11:49:44;;;;;;;;;;;4.10;99.40;;;;;;5063084;28;19901;-79
2023/02/13 11:52:21;;;;;;;;;;;4.00;99.90;;;;;;5068529;28;19909;-81
2023/02/13 11:54:54;;;;;;;;;;;4.10;99.90;;;;;;5067656;28;19923;-79
2023/02/13 11:57:21;;;;;;;;;;;4.20;99.90;;;;;;5068635;28;19908;-79
2023/02/13 11:59:48;;;;;;;;;;;4.60;99.90;;;;;;5069375;28;19909;-79
2023/02/13 12:02:16;;;;;;;;;;;4.80;99.70;;;;;;5068925;28;19999;-82
2023/02/13 12:04:41;;;;;;;;;;;4.90;99.00;;;;;;5061380;28;19981;-81
2023/02/13 12:07:28;;;;;;;;;;;4.90;98.40;;;;;;5061438;28;19952;-81
2023/02/13 12:09:56;;;;;;;;;;;4.70;98.10;;;;;;5061268;28;19919;-80
2023/02/13 12:12:26;;;;;;;;;;;4.70;98.50;;;;;;5059388;28;19933;-81
2023/02/13 12:14:51;;;;;;;;;;;4.80;98.40;;;;;;5041320;28;20010;-82
2023/02/13 12:17:25;;;;;;;;;;;4.70;97.80;;;;;;5060278;28;19933;-82
2023/02/13 12:20:01;;;;;;;;;;;;;;;;;;;;;
2023/02/13 12:22:43;;;;;;;;;;;4.60;98.20;;;;;;5060798;28;19992;-81
2023/02/13 12:25:20;;;;;;;;;;;4.60;98.20;;;;;;5058750;28;19927;-81
2023/02/13 12:27:58;;;;;;;;;;;4.60;97.60;;;;;;5059766;28;20019;-81
2023/02/13 12:30:43;;;;;;;;;;;4.50;98.10;;;;;;5042295;28;19916;-80
2023/02/13 12:33:15;;;;;;;;;;;4.50;98.10;;;;;;5058502;28;19915;-81
2023/02/13 12:35:41;;;;;;;;;;;4.40;98.20;;;;;;5058866;28;19912;-81
2023/02/13 12:38:30;;;;;;;;;;;4.50;98.10;;;;;;5059219;28;19920;-82
2023/02/13 12:41:16;;;;;;;;;;;4.50;98.30;;;;;;5053335;28;19932;-81
2023/02/13 12:43:45;;;;;;;;;;;4.50;98.20;;;;;;5051897;28;19909;-81
2023/02/13 12:46:34;;;;;;;;;;;4.60;98.70;;;;;;5057626;28;19932;-81
2023/02/13 12:49:08;;;;;;;;;;;4.90;98.90;;;;;;5065149;28;19916;-82
2023/02/13 12:51:52;;;;;;;;;;;5.00;97.80;;;;;;5071082;28;19912;-81
2023/02/13 12:54:25;;;;;;;;;;;4.90;97.30;;;;;;5057778;28;19919;-82
2023/02/13 12:56:50;;;;;;;;;;;4.70;97.10;;;;;;5061426;28;20261;-82
2023/02/13 12:59:16;;;;;;;;;;;4.60;97.30;;;;;;5063528;28;19932;-80
2023/02/13 13:01:44;;;;;;;;;;;4.60;97.80;;;;;;5065623;28;19909;-80
2023/02/13 13:04:13;;;;;;;;;;;4.80;98.10;;;;;;5059361;28;20314;-81
2023/02/13 13:06:44;;;;;;;;;;;5.00;97.50;;;;;;5059481;28;20011;-81
2023/02/13 13:09:18;;;;;;;;;;;5.00;96.40;;;;;;5067354;28;19909;-80
2023/02/13 13:12:04;;;;;;;;;;;4.80;96.50;;;;;;5072046;28;19905;-80
2023/02/13 13:14:33;;;;;;;;;;;4.60;96.90;;;;;;5070836;28;19980;-78
2023/02/13 13:17:15;;;;;;;;;;;4.60;97.60;;;;;;5072924;28;19919;-80
2023/02/13 13:19:43;;;;;;;;;;;4.50;97.50;;;;;;5069103;28;19931;-79
2023/02/13 13:22:30;;;;;;;;;;;4.40;97.90;;;;;;5069727;28;20402;-79
2023/02/13 13:25:17;;;;;;;;;;;4.30;98.00;;;;;;5067066;28;19984;-80
2023/02/13 13:27:43;;;;;;;;;;;4.40;98.30;;;;;;5064619;28;19931;-81
2023/02/13 13:30:15;;;;;;;;;;;4.40;97.90;;;;;;5058649;28;19909;-81
2023/02/13 13:32:41;;;;;;;;;;;4.50;98.10;;;;;;5057830;28;20439;-80
2023/02/13 13:35:14;;;;;;;;;;;4.50;97.80;;;;;;5056349;28;19913;-82
2023/02/13 13:38:01;;;;;;;;;;;4.40;97.90;;;;;;5057613;28;19924;-80
2023/02/13 13:40:35;;;;;;;;;;;4.40;97.20;;;;;;5057826;28;19916;-81
2023/02/13 13:43:20;;;;;;;;;;;4.30;98.00;;;;;;5058233;28;19909;-81
2023/02/13 13:46:05;;;;;;;;;;;4.20;98.60;;;;;;5073299;28;20011;-82
2023/02/13 13:48:43;;;;;;;;;;;4.40;98.90;;;;;;5073572;28;19943;-81
2023/02/13 13:51:11;;;;;;;;;;;4.30;98.10;;;;;;5053434;28;19912;-80
2023/02/13 13:53:56;;;;;;;;;;;4.20;98.60;;;;;;5043820;28;19913;-81
2023/02/13 13:56:22;;;;;;;;;;;4.20;98.10;;;;;;5037561;28;19910;-81
2023/02/13 13:58:49;;;;;;;;;;;4.10;98.50;;;;;;5038403;28;19956;-81
2023/02/13 14:01:29;;;;;;;;;;;4.20;98.80;;;;;;5037818;28;19963;-80
2023/02/13 14:04:02;;;;;;;;;;;4.20;98.80;;;;;;5038419;28;20008;-79
2023/02/13 14:06:43;;;;;;;;;;;4.20;98.80;;;;;;5041368;28;19993;-81
2023/02/13 14:09:28;;;;;;;;;;;4.20;98.50;;;;;;5041956;28;19913;-82
2023/02/13 14:11:55;;;;;;;;;;;4.20;98.90;;;;;;5041821;28;19910;-81
2023/02/13 14:14:27;;;;;;;;;;;4.20;99.10;;;;;;5040012;28;19956;-82
2023/02/13 14:16:53;;;;;;;;;;;4.30;99.20;;;;;;5042811;28;19920;-80
2023/02/13 14:19:36;;;;;;;;;;;4.30;98.90;;;;;;5068351;28;20003;-81
2023/02/13 14:22:17;;;;;;;;;;;4.30;99.10;;;;;;5060641;28;19913;-80
2023/02/13 14:24:48;;;;;;;;;;;4.40;98.80;;;;;;5059717;28;19963;-80
2023/02/13 14:27:26;;;;;;;;;;;4.30;98.10;;;;;;5059918;28;19960;-80
2023/02/13 14:29:52;;;;;;;;;;;4.10;97.90;;;;;;5071852;28;19896;-81
2023/02/13 14:32:21;;;;;;;;;;;4.00;98.70;;;;;;5073684;28;19968;-81
2023/02/13 14:34:52;;;;;;;;;;;4.00;98.80;;;;;;5067360;28;19913;-82
2023/02/13 14:37:29;;;;;;;;;;;3.90;98.80;;;;;;5073395;28;19925;-80
2023/02/13 14:40:19;;;;;;;;;;;3.90;99.50;;;;;;5092962;28;20004;-81
2023/02/13 14:42:46;;;;;;;;;;;4.00;99.10;;;;;;5075140;28;19956;-80
2023/02/13 14:45:21;;;;;;;;;;;3.90;98.60;;;;;;5073138;28;19917;-81
2023/02/13 14:47:52;;;;;;;;;;;3.80;99.40;;;;;;5065905;28;19909;-81
2023/02/13 14:50:23;;;;;;;;;;;3.70;99.80;;;;;;5066231;28;20038;-80
2023/02/13 14:52:49;;;;;;;;;;;3.70;99.20;;;;;;5064928;28;19992;-80
2023/02/13 14:55:30;;;;;;;;;;;3.60;99.90;;;;;;5064138;28;19982;-81
2023/02/13 14:58:04;;;;;;;;;;;3.50;99.90;;;;;;5074883;28;20039;-81
2023/02/13 15:00:50;;;;;;;;;;;3.50;99.90;;;;;;5064443;28;20379;-82
2023/02/13 15:03:36;;;;;;;;;;;3.40;99.90;;;;;;5064115;28;19917;-81
2023/02/13 15:06:04;;;;;;;;;;;3.40;99.90;;;;;;5064133;28;20406;-82
2023/02/13 15:08:37;;;;;;;;;;;3.40;99.90;;;;;;5064583;28;19912;-80
2023/02/13 15:11:34;;;;;;;;;;;3.40;99.90;;;;;;5065295;28;19909;-80
2023/02/13 15:13:50;;;;;;;;;;;3.40;99.90;;;;;;5065613;28;19917;-80
2023/02/13 15:16:16;;;;;;;;;;;3.40;99.90;;;;;;5061881;28;19923;-79
2023/02/13 15:18:44;;;;;;;;;;;3.30;99.90;;;;;;5063323;28;19909;-80
2023/02/13 15:21:13;;;;;;;;;;;3.30;99.90;;;;;;5063248;28;19913;-80
2023/02/13 15:23:40;;;;;;;;;;;3.30;99.90;;;;;;5064611;28;19908;-79
2023/02/13 15:26:06;;;;;;;;;;;3.30;99.90;;;;;;5062597;28;19913;-80
2023/02/13 15:28:32;;;;;;;;;;;3.20;99.90;;;;;;5062334;28;19916;-80
2023/02/13 15:30:59;;;;;;;;;;;3.10;99.90;;;;;;5061955;28;19909;-80
2023/02/13 15:33:26;;;;;;;;;;;3.20;99.90;;;;;;5048888;28;19909;-81